createdAt,value
2023-04-02T00:01:00.869Z,14.05
2023-04-02T00:03:42.313Z,14.24
2023-04-02T00:06:40.280Z,14.41
2023-04-02T00:09:13.492Z,14.10
2023-04-02T00:11:44.898Z,13.72
2023-04-02T00:14:27.077Z,13.66
2023-04-02T00:16:55.944Z,13.85
2023-04-02T00:19:46.051Z,13.69
2023-04-02T00:22:16.115Z,13.69
2023-04-02T00:24:43.254Z,13.82
2023-04-02T00:27:13.924Z,13.74
2023-04-02T00:29:45.479Z,13.67
2023-04-02T00:32:17.463Z,13.75
2023-04-02T00:34:45.340Z,13.77
2023-04-02T00:37:18.350Z,13.70
2023-04-02T00:39:46.059Z,13.64
2023-04-02T00:42:13.323Z,13.66
2023-04-02T00:44:42.833Z,13.82
2023-04-02T00:47:17.138Z,13.82
2023-04-02T00:49:45.420Z,13.55
2023-04-02T00:52:14.563Z,13.46
2023-04-02T00:55:02.428Z,13.57
2023-04-02T00:57:29.803Z,13.47
2023-04-02T00:59:59.117Z,13.52
2023-04-02T01:02:28.566Z,13.50
2023-04-02T01:05:05.703Z,13.47
2023-04-02T01:07:32.985Z,13.53
2023-04-02T01:10:19.098Z,13.35
2023-04-02T01:12:49.534Z,13.59
2023-04-02T01:15:30.523Z,13.51
2023-04-02T01:18:06.467Z,13.52
2023-04-02T01:20:33.880Z,13.49
2023-04-02T01:23:18.221Z,13.49
2023-04-02T01:25:50.940Z,13.59
2023-04-02T01:28:33.724Z,13.52
2023-04-02T01:31:02.543Z,13.23
2023-04-02T01:33:32.350Z,13.18
2023-04-02T01:36:07.043Z,13.16
2023-04-02T01:38:38.555Z,13.03
2023-04-02T01:41:09.710Z,13.04
2023-04-02T01:43:42.921Z,12.85
2023-04-02T01:46:32.655Z,12.90
2023-04-02T01:49:02.379Z,12.78
2023-04-02T01:51:34.152Z,12.64
2023-04-02T01:54:06.151Z,12.77
2023-04-02T01:56:34.239Z,12.75
2023-04-02T01:59:03.747Z,12.69
2023-04-02T02:01:40.627Z,12.82
2023-04-02T02:04:11.796Z,12.80
2023-04-02T02:06:39.035Z,12.66
2023-04-02T02:09:07.481Z,12.62
2023-04-02T02:11:36.521Z,12.46
2023-04-02T02:14:22.077Z,12.57
2023-04-02T02:16:50.008Z,12.59
2023-04-02T02:19:27.222Z,12.65
2023-04-02T02:22:08.307Z,12.69
2023-04-02T02:24:37.153Z,12.68
2023-04-02T02:27:04.245Z,12.83
2023-04-02T02:29:35.404Z,12.72
2023-04-02T02:32:03.198Z,12.65
2023-04-02T02:34:36.282Z,12.76
2023-04-02T02:37:12.769Z,12.65
2023-04-02T02:39:42.991Z,12.74
2023-04-02T02:42:14.464Z,12.77
2023-04-02T02:44:44.538Z,12.91
2023-04-02T02:47:14.744Z,12.82
2023-04-02T02:49:43.476Z,12.71
2023-04-02T02:52:19.246Z,12.93
2023-04-02T02:54:58.261Z,13.13
2023-04-02T02:57:31.005Z,13.06
2023-04-02T03:00:00.675Z,12.96
2023-04-02T03:02:29.144Z,12.88
2023-04-02T03:04:58.411Z,13.13
2023-04-02T03:07:28.223Z,13.10
2023-04-02T03:10:12.433Z,12.76
2023-04-02T03:12:40.345Z,12.85
2023-04-02T03:15:07.609Z,12.78
2023-04-02T03:17:39.699Z,12.75
2023-04-02T03:20:14.593Z,12.83
2023-04-02T03:22:46.003Z,12.69
2023-04-02T03:25:19.329Z,12.65
2023-04-02T03:27:47.795Z,12.67
2023-04-02T03:30:33.803Z,12.60
2023-04-02T03:33:09.348Z,12.68
2023-04-02T03:35:47.969Z,12.72
2023-04-02T03:38:25.758Z,12.72
2023-04-02T03:41:01.346Z,12.53
2023-04-02T03:43:33.508Z,12.59
2023-04-02T03:46:23.290Z,12.75
2023-04-02T03:48:53.975Z,12.68
2023-04-02T03:51:44.140Z,12.61
2023-04-02T03:54:14.154Z,12.56
2023-04-02T03:56:41.476Z,12.60
2023-04-02T03:59:16.555Z,12.51
2023-04-02T04:01:49.060Z,12.46
2023-04-02T04:04:18.085Z,12.52
2023-04-02T04:06:46.391Z,12.62
2023-04-02T04:09:20.489Z,12.52
2023-04-02T04:11:52.816Z,12.33
2023-04-02T04:14:33.467Z,12.34
2023-04-02T04:17:17.327Z,12.40
2023-04-02T04:19:45.572Z,12.35
2023-04-02T04:22:17.845Z,12.35
2023-04-02T04:24:47.360Z,12.60
2023-04-02T04:27:49.064Z,12.75
2023-04-02T04:30:25.276Z,12.68
2023-04-02T04:32:58.294Z,12.64
2023-04-02T04:35:45.515Z,12.69
2023-04-02T04:38:27.850Z,12.79
2023-04-02T04:40:59.600Z,12.74
2023-04-02T04:43:33.543Z,12.69
2023-04-02T04:46:05.609Z,12.70
2023-04-02T04:48:53.031Z,12.74
2023-04-02T04:51:24.643Z,12.88
2023-04-02T04:53:53.493Z,12.80
2023-04-02T04:56:27.779Z,12.62
2023-04-02T04:59:03.572Z,12.62
2023-04-02T05:01:46.479Z,12.53
2023-04-02T05:04:19.529Z,12.49
2023-04-02T05:06:53.216Z,12.56
2023-04-02T05:09:30.003Z,12.56
2023-04-02T05:12:03.541Z,12.65
2023-04-02T05:14:50.467Z,12.64
2023-04-02T05:17:28.463Z,12.56
2023-04-02T05:20:16.391Z,12.61
2023-04-02T05:22:56.042Z,12.78
2023-04-02T05:25:24.474Z,12.75
2023-04-02T05:27:55.574Z,12.84
2023-04-02T05:30:22.670Z,12.82
2023-04-02T05:33:00.600Z,12.79
2023-04-02T05:35:32.784Z,12.69
2023-04-02T05:38:01.860Z,12.59
2023-04-02T05:40:39.524Z,12.58
2023-04-02T05:43:11.132Z,12.50
2023-04-02T05:45:44.302Z,12.59
2023-04-02T05:48:18.984Z,12.51
2023-04-02T05:50:51.647Z,12.49
2023-04-02T05:53:28.266Z,12.40
2023-04-02T05:55:58.753Z,12.36
2023-04-02T05:58:46.306Z,12.47
2023-04-02T06:02:03.094Z,12.38
2023-04-02T06:04:47.315Z,12.46
2023-04-02T06:07:16.606Z,12.15
2023-04-02T06:09:54.484Z,12.14
2023-04-02T06:12:22.492Z,12.03
2023-04-02T06:14:49.832Z,12.14
2023-04-02T06:17:18.397Z,12.09
2023-04-02T06:19:47.857Z,12.13
2023-04-02T06:22:24.195Z,12.11
2023-04-02T06:24:59.588Z,12.18
2023-04-02T06:27:28.335Z,12.18
2023-04-02T06:30:02.722Z,12.47
2023-04-02T06:32:31.516Z,12.55
2023-04-02T06:34:58.906Z,12.71
2023-04-02T06:37:31.562Z,12.58
2023-04-02T06:40:34.047Z,12.52
2023-04-02T06:43:42.758Z,12.48
2023-04-02T06:46:29.020Z,12.60
2023-04-02T06:49:18.473Z,12.74
2023-04-02T06:51:48.461Z,12.99
2023-04-02T06:54:16.480Z,12.98
2023-04-02T06:56:47.463Z,12.91
2023-04-02T06:59:20.730Z,12.78
2023-04-02T07:01:51.478Z,12.82
2023-04-02T07:04:19.787Z,12.89
2023-04-02T07:06:48.156Z,12.82
2023-04-02T07:09:17.003Z,12.66
2023-04-02T07:11:48.787Z,12.86
2023-04-02T07:14:17.980Z,13.13
2023-04-02T07:16:45.961Z,13.05
2023-04-02T07:19:17.923Z,13.08
2023-04-02T07:21:45.493Z,13.10
2023-04-02T07:24:13.061Z,13.17
2023-04-02T07:26:40.622Z,13.26
2023-04-02T07:29:08.318Z,13.24
2023-04-02T07:31:37.978Z,13.16
2023-04-02T07:34:05.443Z,13.14
2023-04-02T07:36:32.559Z,13.02
2023-04-02T07:38:59.714Z,12.95
2023-04-02T07:41:27.684Z,12.90
2023-04-02T07:43:54.977Z,12.89
2023-04-02T07:46:22.298Z,12.94
2023-04-02T07:48:49.588Z,13.09
2023-04-02T07:51:21.114Z,12.96
2023-04-02T07:53:54.954Z,13.11
2023-04-02T07:56:23.441Z,13.13
2023-04-02T07:58:50.938Z,13.12
2023-04-02T08:01:20.832Z,13.15
2023-04-02T08:03:48.115Z,13.15
2023-04-02T08:06:15.353Z,12.99
2023-04-02T08:08:42.551Z,12.97
2023-04-02T08:11:10.475Z,13.09
2023-04-02T08:13:37.627Z,13.01
2023-04-02T08:16:05.640Z,13.11
2023-04-02T08:18:32.788Z,13.21
2023-04-02T08:21:00.131Z,13.31
2023-04-02T08:23:27.882Z,13.29
2023-04-02T08:25:55.229Z,13.42
2023-04-02T08:28:23.021Z,13.37
2023-04-02T08:30:51.309Z,13.44
2023-04-02T08:33:18.958Z,13.29
2023-04-02T08:35:46.693Z,13.16
2023-04-02T08:38:15.456Z,13.02
2023-04-02T08:40:44.070Z,12.93
2023-04-02T08:43:29.479Z,12.75
2023-04-02T08:46:07.550Z,12.57
2023-04-02T08:48:36.436Z,12.42
2023-04-02T08:51:04.925Z,12.55
2023-04-02T08:53:37.510Z,12.56
2023-04-02T08:56:34.219Z,12.44
2023-04-02T08:59:03.357Z,12.56
2023-04-02T09:01:36.889Z,12.53
2023-04-02T09:04:06.985Z,12.29
2023-04-02T09:06:34.719Z,12.26
2023-04-02T09:09:02.115Z,12.33
2023-04-02T09:11:47.799Z,12.47
2023-04-02T09:14:24.547Z,12.55
2023-04-02T09:16:53.810Z,12.67
2023-04-02T09:19:22.967Z,12.80
2023-04-02T09:21:57.041Z,12.89
2023-04-02T09:24:24.100Z,13.02
2023-04-02T09:26:51.249Z,13.15
2023-04-02T09:29:40.231Z,13.05
2023-04-02T09:32:18.370Z,13.38
2023-04-02T09:34:45.594Z,13.72
2023-04-02T09:37:25.419Z,14.48
2023-04-02T09:40:01.112Z,15.07
2023-04-02T09:42:34.186Z,15.61
2023-04-02T09:45:15.703Z,16.05
2023-04-02T09:47:43.007Z,15.73
2023-04-02T09:50:13.865Z,15.21
2023-04-02T09:52:41.036Z,14.94
2023-04-02T09:55:17.299Z,15.09
2023-04-02T09:57:45.754Z,15.11
2023-04-02T10:00:29.817Z,15.17
2023-04-02T10:03:03.728Z,14.84
2023-04-02T10:05:40.544Z,14.58
2023-04-02T10:08:16.733Z,14.46
2023-04-02T10:10:46.880Z,14.48
2023-04-02T10:13:13.981Z,14.75
2023-04-02T10:15:41.091Z,15.34
2023-04-02T10:18:13.140Z,16.40
2023-04-02T10:20:50.447Z,17.44
2023-04-02T10:23:19.398Z,18.94
2023-04-02T10:25:53.577Z,19.39
2023-04-02T10:28:38.449Z,21.56
2023-04-02T10:31:13.035Z,22.14
2023-04-02T10:33:41.985Z,23.02
2023-04-02T10:36:11.397Z,22.67
2023-04-02T10:38:42.586Z,21.15
2023-04-02T10:41:22.563Z,19.87
2023-04-02T10:43:57.819Z,19.27
2023-04-02T10:46:35.588Z,18.84
2023-04-02T10:49:12.314Z,18.51
2023-04-02T10:51:57.679Z,20.01
2023-04-02T10:54:30.675Z,21.59
2023-04-02T10:57:01.952Z,23.08
2023-04-02T10:59:37.366Z,23.42
2023-04-02T11:02:15.942Z,23.64
2023-04-02T11:04:46.120Z,23.78
2023-04-02T11:07:24.861Z,23.90
2023-04-02T11:09:53.482Z,24.32
2023-04-02T11:12:27.464Z,23.89
2023-04-02T11:14:56.194Z,23.29
2023-04-02T11:17:23.949Z,24.02
2023-04-02T11:19:51.190Z,23.95
2023-04-02T11:22:22.854Z,23.89
2023-04-02T11:24:51.213Z,24.33
2023-04-02T11:27:22.533Z,23.32
2023-04-02T11:30:09.013Z,22.14
2023-04-02T11:32:39.197Z,21.71
2023-04-02T11:35:25.927Z,20.85
2023-04-02T11:37:54.447Z,20.27
2023-04-02T11:40:40.420Z,19.73
2023-04-02T11:43:26.243Z,19.11
2023-04-02T11:45:55.196Z,18.39
2023-04-02T11:48:22.637Z,17.45
2023-04-02T11:50:49.974Z,16.53
2023-04-02T11:53:17.405Z,15.79
2023-04-02T11:56:04.854Z,15.46
2023-04-02T11:58:38.060Z,14.89
2023-04-02T12:01:05.311Z,14.79
2023-04-02T12:03:32.526Z,14.53
2023-04-02T12:06:10.749Z,14.37
2023-04-02T12:08:47.243Z,14.24
2023-04-02T12:11:18.093Z,14.38
2023-04-02T12:13:48.891Z,14.31
2023-04-02T12:16:16.906Z,14.18
2023-04-02T12:18:48.074Z,14.28
2023-04-02T12:21:19.222Z,14.11
2023-04-02T12:23:47.860Z,14.17
2023-04-02T12:26:27.406Z,14.03
2023-04-02T12:28:56.384Z,14.23
2023-04-02T12:31:25.400Z,14.44
2023-04-02T12:33:53.116Z,14.72
2023-04-02T12:36:21.570Z,14.75
2023-04-02T12:38:48.743Z,15.55
2023-04-02T12:41:21.514Z,15.81
2023-04-02T12:43:56.289Z,16.18
2023-04-02T12:46:25.942Z,16.60
2023-04-02T12:48:54.420Z,16.60
2023-04-02T12:51:21.765Z,16.96
2023-04-02T12:53:50.463Z,17.70
2023-04-02T12:56:21.622Z,18.21
2023-04-02T12:58:53.479Z,18.56
2023-04-02T13:01:23.698Z,19.06
2023-04-02T13:04:07.270Z,18.66
2023-04-02T13:06:35.223Z,18.84
2023-04-02T13:09:03.688Z,19.25
2023-04-02T13:11:35.707Z,19.80
2023-04-02T13:14:03.776Z,19.88
2023-04-02T13:16:35.579Z,20.04
2023-04-02T13:19:10.597Z,20.56
2023-04-02T13:21:38.329Z,20.14
2023-04-02T13:24:05.700Z,19.89
2023-04-02T13:26:33.752Z,19.93
2023-04-02T13:29:02.732Z,20.01
2023-04-02T13:31:30.991Z,19.82
2023-04-02T13:33:58.408Z,19.61
2023-04-02T13:36:28.325Z,19.82
2023-04-02T13:38:56.081Z,19.99
2023-04-02T13:41:27.765Z,20.08
2023-04-02T13:43:55.525Z,19.79
2023-04-02T13:46:26.785Z,19.84
2023-04-02T13:48:54.892Z,19.63
2023-04-02T13:51:31.841Z,19.50
2023-04-02T13:53:59.298Z,19.73
2023-04-02T13:56:27.109Z,19.84
2023-04-02T13:58:54.346Z,19.82
2023-04-02T14:01:23.430Z,20.01
2023-04-02T14:03:53.103Z,20.55
2023-04-02T14:06:23.853Z,20.76
2023-04-02T14:09:02.802Z,20.81
2023-04-02T14:11:33.119Z,20.52
2023-04-02T14:14:00.559Z,20.46
2023-04-02T14:16:49.513Z,20.88
2023-04-02T14:19:34.685Z,20.74
2023-04-02T14:22:20.151Z,21.12
2023-04-02T14:25:06.213Z,21.30
2023-04-02T14:27:55.993Z,21.10
2023-04-02T14:30:30.981Z,21.21
2023-04-02T14:32:59.244Z,21.04
2023-04-02T14:35:33.898Z,20.76
2023-04-02T14:38:01.481Z,21.29
2023-04-02T14:40:42.247Z,21.11
2023-04-02T14:43:12.354Z,21.42
2023-04-02T14:45:57.904Z,21.59
2023-04-02T14:48:41.843Z,21.27
2023-04-02T14:51:12.102Z,21.30
2023-04-02T14:53:59.491Z,20.19
2023-04-02T14:56:26.768Z,20.09
2023-04-02T14:59:23.327Z,19.66
2023-04-02T15:01:54.426Z,19.53
2023-04-02T15:04:36.879Z,19.59
2023-04-02T15:07:07.814Z,19.26
2023-04-02T15:09:38.789Z,18.91
2023-04-02T15:12:12.572Z,18.79
2023-04-02T15:14:43.818Z,18.88
2023-04-02T15:17:12.133Z,18.79
2023-04-02T15:19:40.146Z,18.83
2023-04-02T15:22:22.376Z,18.87
2023-04-02T15:25:07.967Z,18.61
2023-04-02T15:27:37.992Z,18.49
2023-04-02T15:30:11.022Z,18.47
2023-04-02T15:32:39.725Z,18.36
2023-04-02T15:35:06.817Z,18.25
2023-04-02T15:37:46.585Z,18.13
2023-04-02T15:40:35.865Z,18.11
2023-04-02T15:43:12.115Z,18.26
2023-04-02T15:45:48.924Z,18.11
2023-04-02T15:48:27.078Z,17.97
2023-04-02T15:50:58.263Z,17.86
2023-04-02T15:53:31.172Z,18.05
2023-04-02T15:56:18.612Z,17.99
2023-04-02T15:58:52.019Z,18.07
2023-04-02T16:01:22.158Z,17.96
2023-04-02T16:04:16.910Z,17.84
2023-04-02T16:07:01.004Z,17.80
2023-04-02T16:09:47.749Z,17.98
2023-04-02T16:12:16.322Z,17.93
2023-04-02T16:14:45.788Z,17.68
2023-04-02T16:17:25.706Z,17.57
2023-04-02T16:19:56.482Z,17.46
2023-04-02T16:22:29.040Z,17.41
2023-04-02T16:24:59.001Z,17.65
2023-04-02T16:27:26.177Z,17.75
2023-04-02T16:29:56.960Z,17.55
2023-04-02T16:32:40.731Z,17.42
2023-04-02T16:35:43.875Z,17.39
2023-04-02T16:38:21.302Z,17.34
2023-04-02T16:41:09.077Z,17.47
2023-04-02T16:44:00.831Z,17.49
2023-04-02T16:46:41.013Z,17.41
2023-04-02T16:49:26.593Z,17.48
2023-04-02T16:52:07.983Z,17.38
2023-04-02T16:54:38.196Z,17.34
2023-04-02T16:57:17.335Z,17.12
2023-04-02T17:00:00.944Z,17.17
2023-04-02T17:02:37.404Z,17.15
2023-04-02T17:05:32.698Z,17.24
2023-04-02T17:08:05.969Z,17.17
2023-04-02T17:10:53.869Z,17.05
2023-04-02T17:13:26.173Z,16.92
2023-04-02T17:16:13.967Z,17.04
2023-04-02T17:18:42.309Z,17.03
2023-04-02T17:21:12.939Z,16.96
2023-04-02T17:23:56.623Z,16.90
2023-04-02T17:26:32.677Z,16.82
2023-04-02T17:29:01.643Z,16.65
2023-04-02T17:31:34.346Z,16.62
2023-04-02T17:34:09.908Z,16.54
2023-04-02T17:36:38.129Z,16.52
2023-04-02T17:39:08.115Z,16.35
2023-04-02T17:41:49.581Z,16.27
2023-04-02T17:44:24.717Z,16.16
2023-04-02T17:47:01.585Z,16.17
2023-04-02T17:49:37.825Z,16.05
2023-04-02T17:52:15.980Z,16.01
2023-04-02T17:54:57.689Z,15.63
2023-04-02T17:57:37.359Z,15.33
2023-04-02T18:00:16.683Z,15.72
2023-04-02T18:02:46.749Z,15.13
2023-04-02T18:05:31.036Z,14.97
2023-04-02T18:08:21.696Z,14.91
2023-04-02T18:11:01.654Z,14.93
2023-04-02T18:13:52.135Z,15.04
2023-04-02T18:16:22.182Z,15.06
2023-04-02T18:18:52.297Z,15.11
2023-04-02T18:21:48.610Z,14.95
2023-04-02T18:24:22.193Z,14.92
2023-04-02T18:26:49.537Z,14.72
2023-04-02T18:29:16.736Z,14.72
2023-04-02T18:31:51.692Z,14.67
2023-04-02T18:34:21.919Z,14.74
2023-04-02T18:36:51.955Z,14.81
2023-04-02T18:39:37.677Z,14.83
2023-04-02T18:42:23.409Z,14.70
2023-04-02T18:44:58.851Z,14.65
2023-04-02T18:47:46.474Z,14.75
2023-04-02T18:50:25.868Z,14.67
2023-04-02T18:52:55.683Z,14.65
2023-04-02T18:55:28.066Z,14.58
2023-04-02T18:58:06.944Z,14.65
2023-04-02T19:00:40.143Z,14.45
2023-04-02T19:03:08.158Z,14.42
2023-04-02T19:05:36.123Z,14.48
2023-04-02T19:08:09.536Z,14.52
2023-04-02T19:10:43.701Z,14.50
2023-04-02T19:13:16.973Z,14.58
2023-04-02T19:16:04.536Z,14.52
2023-04-02T19:18:44.994Z,14.37
2023-04-02T19:21:25.419Z,14.35
2023-04-02T19:24:11.984Z,14.34
2023-04-02T19:26:47.015Z,14.32
2023-04-02T19:29:21.768Z,14.38
2023-04-02T19:32:00.029Z,14.25
2023-04-02T19:34:39.594Z,14.32
2023-04-02T19:37:37.769Z,14.30
2023-04-02T19:40:08.609Z,14.29
2023-04-02T19:42:43.856Z,14.33
2023-04-02T19:45:27.511Z,14.36
2023-04-02T19:48:01.660Z,14.18
2023-04-02T19:50:29.500Z,14.12
2023-04-02T19:52:58.753Z,14.35
2023-04-02T19:55:45.485Z,14.31
2023-04-02T19:58:26.076Z,14.22
2023-04-02T20:00:55.856Z,14.25
2023-04-02T20:03:24.403Z,14.29
2023-04-02T20:05:51.657Z,14.29
2023-04-02T20:08:18.966Z,14.22
2023-04-02T20:10:46.262Z,14.33
2023-04-02T20:13:13.762Z,14.27
2023-04-02T20:15:45.014Z,14.24
2023-04-02T20:18:14.520Z,14.28
2023-04-02T20:20:48.771Z,14.02
2023-04-02T20:23:18.629Z,14.33
2023-04-02T20:25:54.565Z,13.97
2023-04-02T20:28:23.080Z,13.84
2023-04-02T20:30:51.417Z,14.02
2023-04-02T20:33:22.747Z,13.90
2023-04-02T20:35:50.840Z,13.87
2023-04-02T20:38:18.376Z,13.93
2023-04-02T20:40:52.520Z,14.01
2023-04-02T20:43:25.889Z,14.09
2023-04-02T20:45:58.782Z,14.11
2023-04-02T20:48:32.493Z,13.90
2023-04-02T20:51:00.646Z,13.66
2023-04-02T20:53:31.669Z,13.60
2023-04-02T20:56:02.753Z,13.57
2023-04-02T20:58:29.887Z,13.80
2023-04-02T21:01:05.648Z,13.77
2023-04-02T21:03:32.777Z,13.67
2023-04-02T21:05:59.968Z,13.57
2023-04-02T21:08:27.269Z,13.48
2023-04-02T21:11:01.019Z,13.37
2023-04-02T21:13:30.015Z,13.43
2023-04-02T21:15:58.214Z,13.53
2023-04-02T21:18:25.465Z,13.56
2023-04-02T21:20:59.598Z,13.61
2023-04-02T21:23:27.142Z,13.63
2023-04-02T21:26:06.237Z,13.73
2023-04-02T21:28:34.386Z,13.76
2023-04-02T21:31:12.526Z,13.72
2023-04-02T21:33:40.941Z,13.78
2023-04-02T21:36:09.921Z,13.70
2023-04-02T21:38:38.513Z,13.71
2023-04-02T21:41:16.796Z,13.76
2023-04-02T21:43:44.364Z,13.69
2023-04-02T21:46:11.863Z,13.82
2023-04-02T21:48:40.651Z,13.45
2023-04-02T21:51:09.528Z,13.45
2023-04-02T21:53:36.925Z,13.28
2023-04-02T21:56:08.522Z,13.19
2023-04-02T21:58:36.083Z,13.15
2023-04-02T22:01:05.493Z,13.22
2023-04-02T22:03:35.239Z,13.32
2023-04-02T22:06:02.437Z,13.35
2023-04-02T22:08:29.589Z,13.39
2023-04-02T22:10:56.675Z,13.33
2023-04-02T22:18:58.289Z,13.27
2023-04-02T22:21:25.655Z,13.05
2023-04-02T22:23:53.410Z,13.05
2023-04-02T22:26:21.500Z,12.97
2023-04-02T22:28:48.939Z,12.94
2023-04-02T22:31:17.461Z,12.94
2023-04-02T22:33:45.104Z,12.87
2023-04-02T22:36:12.722Z,12.82
2023-04-02T22:38:39.847Z,12.78
2023-04-02T22:41:17.297Z,12.70
2023-04-02T22:44:03.293Z,12.60
2023-04-02T22:46:30.708Z,12.54
2023-04-02T22:48:58.277Z,12.52
2023-04-02T22:54:12.275Z,12.44
2023-04-02T22:56:39.513Z,12.37
2023-04-02T22:59:06.691Z,12.40
2023-04-02T23:01:35.385Z,12.34
2023-04-02T23:04:20.820Z,12.13
2023-04-02T23:06:48.000Z,11.92
2023-04-02T23:09:15.291Z,11.96
2023-04-02T23:11:42.380Z,11.95
2023-04-02T23:14:27.931Z,12.06
2023-04-02T23:16:55.502Z,12.09
2023-04-02T23:19:22.769Z,12.00
2023-04-02T23:21:49.904Z,11.92
2023-04-02T23:24:17.613Z,11.74
2023-04-02T23:26:44.722Z,11.65
2023-04-02T23:29:11.852Z,11.63
2023-04-02T23:31:38.961Z,11.64
2023-04-02T23:34:06.190Z,11.59
2023-04-02T23:36:34.407Z,11.48
2023-04-02T23:39:09.258Z,11.63
2023-04-02T23:41:37.459Z,11.72
2023-04-02T23:44:04.895Z,11.75
2023-04-02T23:46:32.558Z,11.71
2023-04-02T23:49:00.550Z,11.56
2023-04-02T23:51:28.484Z,11.59
2023-04-02T23:53:56.296Z,11.56
2023-04-02T23:56:24.220Z,11.51
2023-04-02T23:58:51.750Z,11.49
